sensor_id;sensor_type;location;lat;lon;timestamp;P1;durP1;ratioP1;P2;durP2;ratioP2
33786;SDS011;29742;51.540;9.358;2022-12-18T00:00:28;3.10;;;2.33;;
33786;SDS011;29742;51.540;9.358;2022-12-18T00:05:28;3.40;;;2.40;;
33786;SDS011;29742;51.540;9.358;2022-12-18T00:10:29;3.85;;;2.38;;
33786;SDS011;29742;51.540;9.358;2022-12-18T00:15:29;2.35;;;1.63;;
33786;SDS011;29742;51.540;9.358;2022-12-18T00:20:29;2.50;;;1.80;;
33786;SDS011;29742;51.540;9.358;2022-12-18T00:25:31;4.03;;;2.75;;
33786;SDS011;29742;51.540;9.358;2022-12-18T00:30:33;3.13;;;2.17;;
33786;SDS011;29742;51.540;9.358;2022-12-18T00:35:33;4.53;;;2.78;;
33786;SDS011;29742;51.540;9.358;2022-12-18T00:40:33;4.03;;;2.72;;
33786;SDS011;29742;51.540;9.358;2022-12-18T00:45:34;4.10;;;2.90;;
33786;SDS011;29742;51.540;9.358;2022-12-18T00:50:34;3.00;;;1.93;;
33786;SDS011;29742;51.540;9.358;2022-12-18T00:55:34;3.30;;;2.30;;
33786;SDS011;29742;51.540;9.358;2022-12-18T01:00:35;2.53;;;1.90;;
33786;SDS011;29742;51.540;9.358;2022-12-18T01:05:38;3.95;;;2.47;;
33786;SDS011;29742;51.540;9.358;2022-12-18T01:10:41;4.43;;;2.20;;
33786;SDS011;29742;51.540;9.358;2022-12-18T01:15:48;4.10;;;2.70;;
33786;SDS011;29742;51.540;9.358;2022-12-18T01:20:49;3.80;;;2.33;;
33786;SDS011;29742;51.540;9.358;2022-12-18T01:25:49;4.85;;;2.78;;
33786;SDS011;29742;51.540;9.358;2022-12-18T01:30:50;3.17;;;2.15;;
33786;SDS011;29742;51.540;9.358;2022-12-18T01:35:50;3.85;;;2.22;;
33786;SDS011;29742;51.540;9.358;2022-12-18T01:40:56;3.90;;;2.70;;
33786;SDS011;29742;51.540;9.358;2022-12-18T01:45:59;4.63;;;3.15;;
33786;SDS011;29742;51.540;9.358;2022-12-18T01:50:59;4.63;;;2.72;;
33786;SDS011;29742;51.540;9.358;2022-12-18T01:56:00;3.53;;;2.25;;
33786;SDS011;29742;51.540;9.358;2022-12-18T02:01:01;3.33;;;2.50;;
33786;SDS011;29742;51.540;9.358;2022-12-18T02:16:32;6.55;;;3.38;;
33786;SDS011;29742;51.540;9.358;2022-12-18T02:27:32;4.63;;;2.95;;
33786;SDS011;29742;51.540;9.358;2022-12-18T02:32:34;5.88;;;3.17;;
33786;SDS011;29742;51.540;9.358;2022-12-18T02:37:37;5.30;;;2.85;;
33786;SDS011;29742;51.540;9.358;2022-12-18T02:42:39;5.68;;;2.85;;
33786;SDS011;29742;51.540;9.358;2022-12-18T02:47:40;6.43;;;3.72;;
33786;SDS011;29742;51.540;9.358;2022-12-18T03:03:16;4.93;;;2.53;;
33786;SDS011;29742;51.540;9.358;2022-12-18T03:08:27;3.75;;;2.25;;
33786;SDS011;29742;51.540;9.358;2022-12-18T03:13:31;5.45;;;2.90;;
33786;SDS011;29742;51.540;9.358;2022-12-18T03:18:45;5.28;;;2.67;;
33786;SDS011;29742;51.540;9.358;2022-12-18T03:23:48;4.15;;;2.33;;
33786;SDS011;29742;51.540;9.358;2022-12-18T03:28:51;4.90;;;2.67;;
33786;SDS011;29742;51.540;9.358;2022-12-18T03:33:54;4.55;;;2.65;;
33786;SDS011;29742;51.540;9.358;2022-12-18T03:38:56;4.38;;;2.67;;
33786;SDS011;29742;51.540;9.358;2022-12-18T03:49:25;3.60;;;2.08;;
33786;SDS011;29742;51.540;9.358;2022-12-18T03:54:32;2.97;;;1.88;;
33786;SDS011;29742;51.540;9.358;2022-12-18T03:59:34;3.80;;;1.88;;
33786;SDS011;29742;51.540;9.358;2022-12-18T04:04:35;3.58;;;2.00;;
33786;SDS011;29742;51.540;9.358;2022-12-18T04:09:36;5.10;;;2.88;;
33786;SDS011;29742;51.540;9.358;2022-12-18T04:14:38;2.67;;;1.80;;
33786;SDS011;29742;51.540;9.358;2022-12-18T04:19:38;2.83;;;2.05;;
33786;SDS011;29742;51.540;9.358;2022-12-18T04:24:39;3.35;;;1.85;;
33786;SDS011;29742;51.540;9.358;2022-12-18T04:29:39;3.40;;;2.03;;
33786;SDS011;29742;51.540;9.358;2022-12-18T04:34:39;3.80;;;2.13;;
33786;SDS011;29742;51.540;9.358;2022-12-18T04:39:40;4.43;;;2.30;;
33786;SDS011;29742;51.540;9.358;2022-12-18T04:44:40;3.33;;;2.13;;
33786;SDS011;29742;51.540;9.358;2022-12-18T04:49:40;2.65;;;1.67;;
33786;SDS011;29742;51.540;9.358;2022-12-18T04:54:41;2.60;;;1.90;;
33786;SDS011;29742;51.540;9.358;2022-12-18T04:59:41;4.77;;;2.20;;
33786;SDS011;29742;51.540;9.358;2022-12-18T05:04:41;2.70;;;1.98;;
33786;SDS011;29742;51.540;9.358;2022-12-18T05:09:41;2.63;;;1.92;;
33786;SDS011;29742;51.540;9.358;2022-12-18T05:14:45;2.85;;;1.85;;
33786;SDS011;29742;51.540;9.358;2022-12-18T05:19:45;2.90;;;1.98;;
33786;SDS011;29742;51.540;9.358;2022-12-18T05:24:45;2.38;;;1.40;;
33786;SDS011;29742;51.540;9.358;2022-12-18T05:29:46;3.10;;;1.57;;
33786;SDS011;29742;51.540;9.358;2022-12-18T05:34:46;2.13;;;1.42;;
33786;SDS011;29742;51.540;9.358;2022-12-18T05:39:46;2.92;;;1.83;;
33786;SDS011;29742;51.540;9.358;2022-12-18T05:44:47;2.40;;;1.67;;
33786;SDS011;29742;51.540;9.358;2022-12-18T05:49:47;3.35;;;2.38;;
33786;SDS011;29742;51.540;9.358;2022-12-18T09:15:58;3.50;;;2.45;;
33786;SDS011;29742;51.540;9.358;2022-12-18T09:20:59;5.72;;;2.55;;
33786;SDS011;29742;51.540;9.358;2022-12-18T09:25:59;3.85;;;2.78;;
33786;SDS011;29742;51.540;9.358;2022-12-18T09:31:03;3.15;;;2.25;;
33786;SDS011;29742;51.540;9.358;2022-12-18T09:36:06;3.00;;;2.45;;
33786;SDS011;29742;51.540;9.358;2022-12-18T09:46:40;3.63;;;2.22;;
33786;SDS011;29742;51.540;9.358;2022-12-18T09:52:05;3.38;;;2.25;;
33786;SDS011;29742;51.540;9.358;2022-12-18T09:57:23;3.83;;;2.28;;
33786;SDS011;29742;51.540;9.358;2022-12-18T10:02:25;4.53;;;2.40;;
33786;SDS011;29742;51.540;9.358;2022-12-18T10:07:33;5.90;;;3.35;;
33786;SDS011;29742;51.540;9.358;2022-12-18T10:12:42;5.13;;;2.95;;
33786;SDS011;29742;51.540;9.358;2022-12-18T10:17:59;5.03;;;2.60;;
33786;SDS011;29742;51.540;9.358;2022-12-18T10:28:15;2.53;;;2.08;;
33786;SDS011;29742;51.540;9.358;2022-12-18T10:33:19;2.47;;;1.75;;
33786;SDS011;29742;51.540;9.358;2022-12-18T10:43:24;3.55;;;2.35;;
33786;SDS011;29742;51.540;9.358;2022-12-18T10:48:26;2.67;;;1.95;;
33786;SDS011;29742;51.540;9.358;2022-12-18T10:53:31;3.13;;;2.17;;
33786;SDS011;29742;51.540;9.358;2022-12-18T10:58:36;4.05;;;2.63;;
33786;SDS011;29742;51.540;9.358;2022-12-18T11:03:38;3.83;;;2.63;;
33786;SDS011;29742;51.540;9.358;2022-12-18T11:08:41;2.80;;;1.77;;
33786;SDS011;29742;51.540;9.358;2022-12-18T11:13:52;2.08;;;1.52;;
33786;SDS011;29742;51.540;9.358;2022-12-18T11:19:19;3.40;;;2.17;;
33786;SDS011;29742;51.540;9.358;2022-12-18T11:24:34;4.43;;;2.65;;
33786;SDS011;29742;51.540;9.358;2022-12-18T11:29:37;3.90;;;2.33;;
33786;SDS011;29742;51.540;9.358;2022-12-18T11:34:38;2.88;;;2.13;;
33786;SDS011;29742;51.540;9.358;2022-12-18T11:39:57;3.42;;;2.22;;
33786;SDS011;29742;51.540;9.358;2022-12-18T11:50:14;4.60;;;2.85;;
33786;SDS011;29742;51.540;9.358;2022-12-18T12:00:46;2.53;;;1.80;;
33786;SDS011;29742;51.540;9.358;2022-12-18T12:21:40;2.65;;;1.80;;
33786;SDS011;29742;51.540;9.358;2022-12-18T12:26:46;2.80;;;1.98;;
33786;SDS011;29742;51.540;9.358;2022-12-18T12:41:56;2.65;;;1.85;;
33786;SDS011;29742;51.540;9.358;2022-12-18T12:47:20;2.83;;;1.77;;
33786;SDS011;29742;51.540;9.358;2022-12-18T12:57:37;2.15;;;1.50;;
33786;SDS011;29742;51.540;9.358;2022-12-18T13:02:48;3.08;;;1.80;;
33786;SDS011;29742;51.540;9.358;2022-12-18T13:07:52;1.98;;;1.63;;
33786;SDS011;29742;51.540;9.358;2022-12-18T13:12:57;2.03;;;1.52;;
33786;SDS011;29742;51.540;9.358;2022-12-18T13:33:47;3.88;;;1.90;;
33786;SDS011;29742;51.540;9.358;2022-12-18T13:38:47;2.63;;;1.92;;
33786;SDS011;29742;51.540;9.358;2022-12-18T13:44:28;3.22;;;1.85;;
33786;SDS011;29742;51.540;9.358;2022-12-18T13:54:41;3.38;;;2.35;;
33786;SDS011;29742;51.540;9.358;2022-12-18T13:59:42;2.92;;;1.85;;
33786;SDS011;29742;51.540;9.358;2022-12-18T14:04:46;3.15;;;1.52;;
33786;SDS011;29742;51.540;9.358;2022-12-18T14:09:52;2.92;;;1.30;;
33786;SDS011;29742;51.540;9.358;2022-12-18T14:14:54;2.70;;;1.60;;
33786;SDS011;29742;51.540;9.358;2022-12-18T14:19:54;3.07;;;1.50;;
33786;SDS011;29742;51.540;9.358;2022-12-18T14:35:34;2.13;;;1.20;;
33786;SDS011;29742;51.540;9.358;2022-12-18T14:40:35;2.08;;;1.48;;
33786;SDS011;29742;51.540;9.358;2022-12-18T14:45:44;1.67;;;1.40;;
33786;SDS011;29742;51.540;9.358;2022-12-18T14:50:53;1.77;;;0.95;;
33786;SDS011;29742;51.540;9.358;2022-12-18T14:55:55;1.38;;;0.93;;
33786;SDS011;29742;51.540;9.358;2022-12-18T15:00:55;2.00;;;1.40;;
33786;SDS011;29742;51.540;9.358;2022-12-18T15:05:56;2.30;;;1.57;;
33786;SDS011;29742;51.540;9.358;2022-12-18T15:11:25;2.65;;;1.63;;
33786;SDS011;29742;51.540;9.358;2022-12-18T15:16:26;3.63;;;1.70;;
33786;SDS011;29742;51.540;9.358;2022-12-18T15:21:27;2.10;;;1.48;;
33786;SDS011;29742;51.540;9.358;2022-12-18T15:26:30;1.30;;;1.10;;
33786;SDS011;29742;51.540;9.358;2022-12-18T15:31:36;3.30;;;1.50;;
33786;SDS011;29742;51.540;9.358;2022-12-18T15:36:37;1.65;;;1.10;;
33786;SDS011;29742;51.540;9.358;2022-12-18T15:41:37;1.95;;;1.25;;
33786;SDS011;29742;51.540;9.358;2022-12-18T15:46:38;2.00;;;1.40;;
33786;SDS011;29742;51.540;9.358;2022-12-18T15:51:38;1.77;;;1.25;;
33786;SDS011;29742;51.540;9.358;2022-12-18T15:56:39;1.58;;;1.20;;
33786;SDS011;29742;51.540;9.358;2022-12-18T16:01:57;1.73;;;1.38;;
33786;SDS011;29742;51.540;9.358;2022-12-18T16:06:58;2.95;;;1.20;;
33786;SDS011;29742;51.540;9.358;2022-12-18T16:12:01;1.65;;;1.15;;
33786;SDS011;29742;51.540;9.358;2022-12-18T16:17:03;1.67;;;1.23;;
33786;SDS011;29742;51.540;9.358;2022-12-18T16:22:05;1.80;;;1.15;;
33786;SDS011;29742;51.540;9.358;2022-12-18T16:27:05;2.87;;;1.80;;
33786;SDS011;29742;51.540;9.358;2022-12-18T16:32:08;3.25;;;1.30;;
33786;SDS011;29742;51.540;9.358;2022-12-18T16:37:15;2.17;;;1.40;;
33786;SDS011;29742;51.540;9.358;2022-12-18T16:42:16;1.70;;;1.23;;
33786;SDS011;29742;51.540;9.358;2022-12-18T16:47:18;2.60;;;1.48;;
33786;SDS011;29742;51.540;9.358;2022-12-18T16:52:19;2.80;;;2.05;;
33786;SDS011;29742;51.540;9.358;2022-12-18T16:57:20;2.28;;;1.50;;
33786;SDS011;29742;51.540;9.358;2022-12-18T17:02:22;2.00;;;1.23;;
33786;SDS011;29742;51.540;9.358;2022-12-18T17:07:24;3.63;;;2.00;;
33786;SDS011;29742;51.540;9.358;2022-12-18T17:12:25;1.70;;;1.35;;
33786;SDS011;29742;51.540;9.358;2022-12-18T17:17:26;1.92;;;1.50;;
33786;SDS011;29742;51.540;9.358;2022-12-18T17:22:26;2.37;;;1.77;;
33786;SDS011;29742;51.540;9.358;2022-12-18T17:27:27;2.00;;;1.23;;
33786;SDS011;29742;51.540;9.358;2022-12-18T17:32:27;2.30;;;1.52;;
33786;SDS011;29742;51.540;9.358;2022-12-18T17:37:27;2.10;;;1.25;;
33786;SDS011;29742;51.540;9.358;2022-12-18T17:42:28;1.88;;;1.20;;
33786;SDS011;29742;51.540;9.358;2022-12-18T17:47:28;2.20;;;1.40;;
33786;SDS011;29742;51.540;9.358;2022-12-18T17:52:28;1.33;;;1.20;;
33786;SDS011;29742;51.540;9.358;2022-12-18T17:57:29;1.65;;;1.30;;
33786;SDS011;29742;51.540;9.358;2022-12-18T18:02:29;1.97;;;1.43;;
33786;SDS011;29742;51.540;9.358;2022-12-18T18:07:29;1.92;;;1.10;;
33786;SDS011;29742;51.540;9.358;2022-12-18T18:12:30;1.38;;;1.15;;
33786;SDS011;29742;51.540;9.358;2022-12-18T18:17:49;2.10;;;1.45;;
33786;SDS011;29742;51.540;9.358;2022-12-18T18:22:49;1.80;;;1.25;;
33786;SDS011;29742;51.540;9.358;2022-12-18T18:27:49;2.08;;;1.65;;
33786;SDS011;29742;51.540;9.358;2022-12-18T18:32:50;2.10;;;1.40;;
33786;SDS011;29742;51.540;9.358;2022-12-18T18:37:50;2.63;;;1.63;;
33786;SDS011;29742;51.540;9.358;2022-12-18T18:42:51;1.48;;;1.20;;
33786;SDS011;29742;51.540;9.358;2022-12-18T18:47:51;1.70;;;1.25;;
33786;SDS011;29742;51.540;9.358;2022-12-18T18:52:52;1.98;;;1.38;;
33786;SDS011;29742;51.540;9.358;2022-12-18T18:57:52;1.27;;;0.98;;
33786;SDS011;29742;51.540;9.358;2022-12-18T19:02:52;1.67;;;1.30;;
33786;SDS011;29742;51.540;9.358;2022-12-18T19:07:54;2.17;;;1.50;;
33786;SDS011;29742;51.540;9.358;2022-12-18T19:12:54;1.65;;;1.08;;
33786;SDS011;29742;51.540;9.358;2022-12-18T19:18:14;1.40;;;1.10;;
33786;SDS011;29742;51.540;9.358;2022-12-18T19:23:14;1.65;;;1.30;;
33786;SDS011;29742;51.540;9.358;2022-12-18T19:28:14;2.13;;;1.30;;
33786;SDS011;29742;51.540;9.358;2022-12-18T19:33:15;2.33;;;1.42;;
33786;SDS011;29742;51.540;9.358;2022-12-18T19:38:15;2.50;;;1.23;;
33786;SDS011;29742;51.540;9.358;2022-12-18T19:43:16;2.08;;;1.25;;
33786;SDS011;29742;51.540;9.358;2022-12-18T19:48:16;2.03;;;1.25;;
33786;SDS011;29742;51.540;9.358;2022-12-18T19:53:17;1.90;;;1.40;;
33786;SDS011;29742;51.540;9.358;2022-12-18T19:58:17;2.03;;;1.40;;
33786;SDS011;29742;51.540;9.358;2022-12-18T20:03:17;1.35;;;1.17;;
33786;SDS011;29742;51.540;9.358;2022-12-18T20:08:18;2.53;;;1.50;;
33786;SDS011;29742;51.540;9.358;2022-12-18T20:13:18;2.75;;;1.65;;
33786;SDS011;29742;51.540;9.358;2022-12-18T20:18:18;2.38;;;1.70;;
33786;SDS011;29742;51.540;9.358;2022-12-18T20:23:18;2.33;;;1.50;;
33786;SDS011;29742;51.540;9.358;2022-12-18T20:28:21;2.63;;;1.40;;
33786;SDS011;29742;51.540;9.358;2022-12-18T20:33:22;1.83;;;1.27;;
33786;SDS011;29742;51.540;9.358;2022-12-18T20:38:22;4.50;;;2.03;;
33786;SDS011;29742;51.540;9.358;2022-12-18T20:43:22;1.92;;;1.35;;
33786;SDS011;29742;51.540;9.358;2022-12-18T20:48:22;2.67;;;1.63;;
33786;SDS011;29742;51.540;9.358;2022-12-18T20:53:23;2.25;;;1.40;;
33786;SDS011;29742;51.540;9.358;2022-12-18T20:58:23;2.67;;;1.63;;
33786;SDS011;29742;51.540;9.358;2022-12-18T21:03:24;1.83;;;1.45;;
33786;SDS011;29742;51.540;9.358;2022-12-18T21:08:24;2.75;;;1.90;;
33786;SDS011;29742;51.540;9.358;2022-12-18T21:13:24;6.65;;;1.80;;
33786;SDS011;29742;51.540;9.358;2022-12-18T21:18:25;2.72;;;1.88;;
33786;SDS011;29742;51.540;9.358;2022-12-18T21:23:25;2.43;;;1.37;;
33786;SDS011;29742;51.540;9.358;2022-12-18T21:28:25;1.70;;;1.40;;
33786;SDS011;29742;51.540;9.358;2022-12-18T21:33:26;1.85;;;1.33;;
33786;SDS011;29742;51.540;9.358;2022-12-18T21:38:26;3.25;;;1.80;;
33786;SDS011;29742;51.540;9.358;2022-12-18T21:43:26;3.00;;;1.88;;
33786;SDS011;29742;51.540;9.358;2022-12-18T21:48:45;2.70;;;1.65;;
33786;SDS011;29742;51.540;9.358;2022-12-18T21:53:46;2.58;;;1.27;;
33786;SDS011;29742;51.540;9.358;2022-12-18T21:58:49;2.55;;;1.42;;
33786;SDS011;29742;51.540;9.358;2022-12-18T22:03:50;1.87;;;1.53;;
33786;SDS011;29742;51.540;9.358;2022-12-18T22:08:50;3.35;;;1.95;;
33786;SDS011;29742;51.540;9.358;2022-12-18T22:13:50;2.00;;;1.23;;
33786;SDS011;29742;51.540;9.358;2022-12-18T22:18:51;1.55;;;1.13;;
33786;SDS011;29742;51.540;9.358;2022-12-18T22:23:58;1.67;;;1.23;;
33786;SDS011;29742;51.540;9.358;2022-12-18T22:28:59;3.05;;;1.88;;
33786;SDS011;29742;51.540;9.358;2022-12-18T22:34:18;2.75;;;1.73;;
33786;SDS011;29742;51.540;9.358;2022-12-18T22:39:20;3.33;;;2.08;;
33786;SDS011;29742;51.540;9.358;2022-12-18T22:44:25;2.42;;;1.45;;
33786;SDS011;29742;51.540;9.358;2022-12-18T22:49:25;1.48;;;1.20;;
33786;SDS011;29742;51.540;9.358;2022-12-18T22:54:26;2.92;;;1.77;;
33786;SDS011;29742;51.540;9.358;2022-12-18T22:59:26;1.88;;;1.30;;
33786;SDS011;29742;51.540;9.358;2022-12-18T23:04:26;2.88;;;1.38;;
33786;SDS011;29742;51.540;9.358;2022-12-18T23:09:27;2.00;;;1.40;;
33786;SDS011;29742;51.540;9.358;2022-12-18T23:14:28;2.93;;;1.70;;
33786;SDS011;29742;51.540;9.358;2022-12-18T23:19:28;3.08;;;1.65;;
33786;SDS011;29742;51.540;9.358;2022-12-18T23:24:28;2.80;;;1.60;;
33786;SDS011;29742;51.540;9.358;2022-12-18T23:29:29;2.08;;;1.33;;
33786;SDS011;29742;51.540;9.358;2022-12-18T23:34:29;3.05;;;1.48;;
33786;SDS011;29742;51.540;9.358;2022-12-18T23:39:29;2.67;;;1.70;;
33786;SDS011;29742;51.540;9.358;2022-12-18T23:44:30;1.92;;;1.30;;
33786;SDS011;29742;51.540;9.358;2022-12-18T23:49:30;1.67;;;1.10;;
33786;SDS011;29742;51.540;9.358;2022-12-18T23:54:30;1.65;;;1.27;;
33786;SDS011;29742;51.540;9.358;2022-12-18T23:59:31;2.60;;;1.75;;
